createdAt,value
2022-10-03T00:00:31.637Z,21.74
2022-10-03T00:03:29.573Z,22.05
2022-10-03T00:06:09.480Z,22.19
2022-10-03T00:09:08.513Z,22.13
2022-10-03T00:11:43.626Z,22.19
2022-10-03T00:14:24.947Z,21.97
2022-10-03T00:17:08.697Z,22.04
2022-10-03T00:19:44.659Z,21.95
2022-10-03T00:22:21.457Z,21.84
2022-10-03T00:25:00.527Z,21.80
2022-10-03T00:28:06.923Z,21.77
2022-10-03T00:30:59.632Z,21.79
2022-10-03T00:33:38.440Z,21.97
2022-10-03T00:36:11.867Z,21.89
2022-10-03T00:39:01.110Z,21.79
2022-10-03T00:41:56.906Z,21.60
2022-10-03T00:44:48.717Z,21.40
2022-10-03T00:47:43.206Z,21.41
2022-10-03T00:50:37.748Z,21.22
2022-10-03T00:53:26.061Z,21.40
2022-10-03T00:56:13.428Z,21.33
2022-10-03T00:58:54.311Z,21.42
2022-10-03T01:01:43.011Z,21.45
2022-10-03T01:04:35.079Z,21.43
2022-10-03T01:07:06.696Z,21.45
2022-10-03T01:09:33.400Z,21.46
2022-10-03T01:12:52.861Z,21.28
2022-10-03T01:15:43.554Z,21.01
2022-10-03T01:18:13.516Z,21.01
2022-10-03T01:20:53.427Z,20.76
2022-10-03T01:23:38.485Z,20.61
2022-10-03T01:26:07.839Z,20.63
2022-10-03T01:29:19.198Z,20.46
2022-10-03T01:32:03.046Z,20.36
2022-10-03T01:34:46.337Z,20.30
2022-10-03T01:37:31.477Z,20.30
2022-10-03T01:40:08.089Z,20.31
2022-10-03T01:42:50.211Z,20.42
2022-10-03T01:45:43.380Z,20.43
2022-10-03T01:48:22.175Z,20.40
2022-10-03T01:51:12.250Z,20.16
2022-10-03T01:53:49.422Z,20.07
2022-10-03T01:56:27.225Z,19.97
2022-10-03T01:59:06.920Z,20.15
2022-10-03T02:02:02.093Z,20.27
2022-10-03T02:04:53.528Z,20.44
2022-10-03T02:07:40.977Z,20.46
2022-10-03T02:10:24.714Z,20.42
2022-10-03T02:13:23.935Z,20.40
2022-10-03T02:15:54.650Z,20.33
2022-10-03T02:18:36.842Z,20.32
2022-10-03T02:21:16.223Z,20.37
2022-10-03T02:23:46.089Z,20.36
2022-10-03T02:26:48.158Z,20.12
2022-10-03T02:29:36.617Z,20.02
2022-10-03T02:32:40.932Z,19.87
2022-10-03T02:35:22.663Z,19.80
2022-10-03T02:37:58.384Z,19.87
2022-10-03T02:40:37.462Z,19.99
2022-10-03T02:43:42.115Z,19.97
2022-10-03T02:46:40.616Z,20.08
2022-10-03T02:49:19.143Z,20.16
2022-10-03T02:52:14.213Z,20.24
2022-10-03T02:55:17.687Z,20.15
2022-10-03T02:58:11.387Z,20.12
2022-10-03T03:00:59.871Z,19.97
2022-10-03T03:04:14.681Z,19.55
2022-10-03T03:07:05.275Z,19.92
2022-10-03T03:09:50.576Z,19.91
2022-10-03T03:12:20.114Z,19.94
2022-10-03T03:15:12.340Z,20.06
2022-10-03T03:18:04.272Z,20.15
2022-10-03T03:20:52.532Z,20.22
2022-10-03T03:23:37.621Z,20.17
2022-10-03T03:26:04.459Z,20.28
2022-10-03T03:28:40.005Z,20.26
2022-10-03T03:31:15.048Z,20.35
2022-10-03T03:33:58.924Z,20.33
2022-10-03T03:36:34.079Z,20.33
2022-10-03T03:39:09.309Z,20.21
2022-10-03T03:42:04.113Z,20.36
2022-10-03T03:44:58.631Z,20.36
2022-10-03T03:47:54.760Z,20.28
2022-10-03T03:50:48.718Z,20.22
2022-10-03T03:53:45.113Z,20.12
2022-10-03T03:56:30.377Z,20.06
2022-10-03T03:59:07.058Z,19.96
2022-10-03T04:01:52.400Z,19.86
2022-10-03T04:04:57.210Z,19.83
2022-10-03T04:07:26.822Z,19.85
2022-10-03T04:10:17.973Z,19.82
2022-10-03T04:12:47.641Z,19.86
2022-10-03T04:15:29.837Z,19.90
2022-10-03T04:18:33.745Z,19.86
2022-10-03T04:21:22.001Z,19.80
2022-10-03T04:23:52.087Z,19.74
2022-10-03T04:26:43.440Z,19.57
2022-10-03T04:29:19.032Z,19.45
2022-10-03T04:32:13.206Z,19.10
2022-10-03T04:35:13.810Z,19.29
2022-10-03T04:38:12.339Z,19.19
2022-10-03T04:41:11.348Z,19.13
2022-10-03T04:43:47.044Z,19.09
2022-10-03T04:46:35.357Z,18.99
2022-10-03T04:49:12.460Z,19.11
2022-10-03T04:51:45.224Z,19.07
2022-10-03T04:54:33.259Z,19.03
2022-10-03T04:57:03.991Z,19.06
2022-10-03T04:59:43.876Z,18.86
2022-10-03T05:02:14.725Z,19.07
2022-10-03T05:05:07.486Z,19.09
2022-10-03T05:08:04.898Z,19.09
2022-10-03T05:10:45.019Z,19.14
2022-10-03T05:13:18.575Z,18.99
2022-10-03T05:15:51.602Z,19.22
2022-10-03T05:18:35.320Z,19.20
2022-10-03T05:21:20.508Z,19.17
2022-10-03T05:24:15.651Z,19.12
2022-10-03T05:27:11.525Z,18.94
2022-10-03T05:30:08.990Z,19.11
2022-10-03T05:32:48.421Z,19.13
2022-10-03T05:35:52.803Z,19.02
2022-10-03T05:38:37.599Z,18.92
2022-10-03T05:41:29.553Z,18.99
2022-10-03T05:44:43.302Z,18.88
2022-10-03T05:47:45.021Z,19.09
2022-10-03T05:50:38.501Z,18.95
2022-10-03T05:53:25.530Z,18.90
2022-10-03T05:56:06.383Z,18.87
2022-10-03T05:58:45.085Z,18.93
2022-10-03T06:01:21.606Z,18.89
2022-10-03T06:04:10.197Z,18.81
2022-10-03T06:06:49.139Z,18.78
2022-10-03T06:09:55.412Z,18.73
2022-10-03T06:12:40.935Z,18.61
2022-10-03T06:15:14.777Z,18.72
2022-10-03T06:18:16.135Z,18.76
2022-10-03T06:21:20.225Z,18.86
2022-10-03T06:24:13.045Z,18.94
2022-10-03T06:27:10.042Z,18.98
2022-10-03T06:29:54.993Z,19.23
2022-10-03T06:32:48.138Z,19.20
2022-10-03T06:35:24.437Z,19.32
2022-10-03T06:38:36.481Z,19.06
2022-10-03T06:41:24.273Z,19.31
2022-10-03T06:44:03.060Z,19.26
2022-10-03T06:46:57.965Z,19.17
2022-10-03T06:50:11.224Z,19.16
2022-10-03T06:52:56.918Z,19.03
2022-10-03T06:56:01.256Z,19.05
2022-10-03T06:58:52.285Z,19.03
2022-10-03T07:01:50.970Z,18.92
2022-10-03T07:04:30.161Z,18.97
2022-10-03T07:07:12.783Z,18.96
2022-10-03T07:09:45.334Z,19.00
2022-10-03T07:12:21.188Z,19.14
2022-10-03T07:15:06.288Z,19.26
2022-10-03T07:17:51.369Z,19.37
2022-10-03T07:20:45.507Z,19.31
2022-10-03T07:23:42.673Z,19.27
2022-10-03T07:26:43.070Z,19.12
2022-10-03T07:29:20.940Z,19.37
2022-10-03T07:32:07.279Z,19.47
2022-10-03T07:35:17.457Z,19.77
2022-10-03T07:38:28.814Z,19.93
2022-10-03T07:41:35.628Z,20.04
2022-10-03T07:44:38.504Z,20.32
2022-10-03T07:47:27.001Z,20.66
2022-10-03T07:50:42.191Z,20.85
2022-10-03T07:53:57.976Z,21.09
2022-10-03T07:57:09.974Z,21.29
2022-10-03T07:59:55.312Z,21.42
2022-10-03T08:03:01.221Z,21.53
2022-10-03T08:05:59.790Z,21.65
2022-10-03T08:09:28.279Z,21.75
2022-10-03T08:12:31.762Z,21.94
2022-10-03T08:15:22.185Z,22.02
2022-10-03T08:18:21.430Z,22.35
2022-10-03T08:21:15.931Z,22.79
2022-10-03T08:24:12.243Z,23.16
2022-10-03T08:27:09.953Z,23.57
2022-10-03T08:30:41.882Z,24.01
2022-10-03T08:33:55.032Z,24.43
2022-10-03T08:36:40.531Z,24.72
2022-10-03T08:39:13.525Z,24.95
2022-10-03T08:42:08.279Z,25.02
2022-10-03T08:44:57.960Z,25.00
2022-10-03T08:47:58.332Z,25.06
2022-10-03T08:50:33.849Z,25.17
2022-10-03T08:53:20.714Z,25.40
2022-10-03T08:56:04.409Z,25.76
2022-10-03T08:58:57.601Z,25.71
2022-10-03T09:01:27.309Z,26.38
2022-10-03T09:03:54.161Z,26.75
2022-10-03T09:07:15.339Z,27.16
2022-10-03T09:09:36.602Z,27.52
2022-10-03T09:12:32.473Z,27.75
2022-10-03T09:15:22.893Z,28.02
2022-10-03T09:18:13.859Z,28.09
2022-10-03T09:21:07.185Z,28.56
2022-10-03T09:23:52.783Z,28.69
2022-10-03T09:26:28.750Z,29.03
2022-10-03T09:29:16.867Z,29.24
2022-10-03T09:32:07.785Z,29.36
2022-10-03T09:34:43.670Z,29.43
2022-10-03T09:38:03.819Z,29.41
2022-10-03T09:40:53.323Z,29.60
2022-10-03T09:43:29.621Z,29.92
2022-10-03T09:46:30.702Z,30.05
2022-10-03T09:49:22.152Z,30.10
2022-10-03T09:51:55.657Z,30.27
2022-10-03T09:54:33.203Z,30.41
2022-10-03T09:57:22.890Z,30.66
2022-10-03T10:00:15.754Z,30.88
2022-10-03T10:02:51.840Z,31.14
2022-10-03T10:05:21.614Z,31.13
2022-10-03T10:08:00.334Z,31.21
2022-10-03T10:11:01.413Z,31.52
2022-10-03T10:14:06.598Z,32.07
2022-10-03T10:16:48.315Z,32.40
2022-10-03T10:19:30.776Z,32.74
2022-10-03T10:22:16.765Z,32.95
2022-10-03T10:25:01.958Z,33.19
2022-10-03T10:27:50.339Z,33.57
2022-10-03T10:30:17.778Z,33.67
2022-10-03T10:33:21.956Z,33.84
2022-10-03T10:36:26.452Z,34.14
2022-10-03T10:39:23.074Z,34.29
2022-10-03T10:42:27.173Z,34.46
2022-10-03T10:45:15.214Z,34.23
2022-10-03T10:48:23.013Z,34.14
2022-10-03T10:51:05.318Z,34.61
2022-10-03T10:54:09.485Z,34.93
2022-10-03T10:57:03.341Z,35.12
2022-10-03T10:59:54.591Z,35.10
2022-10-03T11:02:33.865Z,35.44
2022-10-03T11:05:38.448Z,36.22
2022-10-03T11:08:23.869Z,37.46
2022-10-03T11:11:09.305Z,37.77
2022-10-03T11:13:41.973Z,37.63
2022-10-03T11:16:31.790Z,37.52
2022-10-03T11:19:11.607Z,36.99
2022-10-03T11:21:50.689Z,37.01
2022-10-03T11:24:36.245Z,37.16
2022-10-03T11:27:07.609Z,37.32
2022-10-03T11:29:52.852Z,37.34
2022-10-03T11:32:47.636Z,37.47
2022-10-03T11:36:10.385Z,37.39
2022-10-03T11:39:04.793Z,37.57
2022-10-03T11:41:50.616Z,38.16
2022-10-03T11:44:32.269Z,38.73
2022-10-03T11:47:29.112Z,39.38
2022-10-03T11:50:02.008Z,39.73
2022-10-03T11:52:41.931Z,39.52
2022-10-03T11:55:21.266Z,39.36
2022-10-03T11:58:03.487Z,39.35
2022-10-03T12:00:36.458Z,38.88
2022-10-03T12:03:21.691Z,38.93
2022-10-03T12:06:28.851Z,38.91
2022-10-03T12:09:07.510Z,39.11
2022-10-03T12:11:43.811Z,39.06
2022-10-03T12:14:11.788Z,39.17
2022-10-03T12:17:07.055Z,39.10
2022-10-03T12:19:37.850Z,39.14
2022-10-03T12:22:04.579Z,39.58
2022-10-03T12:24:43.145Z,39.76
2022-10-03T12:27:09.819Z,40.07
2022-10-03T12:29:42.737Z,40.30
2022-10-03T12:32:24.333Z,40.68
2022-10-03T12:35:02.818Z,40.80
2022-10-03T12:37:30.092Z,40.54
2022-10-03T12:40:16.247Z,40.51
2022-10-03T12:42:47.515Z,40.99
2022-10-03T12:45:20.417Z,41.70
2022-10-03T12:47:59.227Z,42.17
2022-10-03T12:50:31.906Z,42.45
2022-10-03T12:53:17.690Z,42.80
2022-10-03T12:56:03.620Z,42.99
2022-10-03T12:59:02.657Z,43.09
2022-10-03T13:01:54.297Z,43.12
2022-10-03T13:04:24.353Z,43.14
2022-10-03T13:07:17.966Z,42.80
2022-10-03T13:10:10.856Z,41.47
2022-10-03T13:12:39.562Z,39.48
2022-10-03T13:15:44.920Z,37.91
2022-10-03T13:18:30.521Z,36.73
2022-10-03T13:21:45.621Z,35.78
2022-10-03T13:24:32.546Z,34.88
2022-10-03T13:27:29.439Z,34.28
2022-10-03T13:30:40.172Z,33.84
2022-10-03T13:33:18.961Z,33.33
2022-10-03T13:36:24.233Z,32.74
2022-10-03T13:39:14.534Z,32.47
2022-10-03T13:42:01.681Z,32.19
2022-10-03T13:44:43.544Z,31.85
2022-10-03T13:47:22.294Z,31.67
2022-10-03T13:49:53.822Z,31.49
2022-10-03T13:52:27.185Z,31.26
2022-10-03T13:55:13.534Z,30.95
2022-10-03T13:58:04.420Z,30.74
2022-10-03T14:01:02.482Z,30.55
2022-10-03T14:03:39.492Z,30.48
2022-10-03T14:06:24.644Z,30.36
2022-10-03T14:09:13.113Z,30.27
2022-10-03T14:12:06.874Z,29.94
2022-10-03T14:14:49.607Z,30.07
2022-10-03T14:17:25.549Z,30.05
2022-10-03T14:20:15.450Z,29.71
2022-10-03T14:23:09.474Z,29.31
2022-10-03T14:25:47.390Z,29.52
2022-10-03T14:28:26.623Z,29.53
2022-10-03T14:31:07.253Z,29.53
2022-10-03T14:33:43.361Z,29.50
2022-10-03T14:36:46.661Z,29.42
2022-10-03T14:39:40.212Z,28.89
2022-10-03T14:42:31.586Z,29.19
2022-10-03T14:45:03.933Z,29.10
2022-10-03T14:47:41.043Z,29.19
2022-10-03T14:50:17.850Z,28.91
2022-10-03T14:53:02.879Z,29.08
2022-10-03T14:55:52.491Z,28.86
2022-10-03T14:58:23.384Z,28.93
2022-10-03T15:00:55.708Z,28.82
2022-10-03T15:03:33.899Z,28.84
2022-10-03T15:06:21.322Z,28.72
2022-10-03T15:08:55.154Z,28.65
2022-10-03T15:11:28.291Z,28.51
2022-10-03T15:14:03.124Z,28.16
2022-10-03T15:16:37.395Z,28.24
2022-10-03T15:19:23.194Z,28.14
2022-10-03T15:21:52.932Z,28.11
2022-10-03T15:24:28.376Z,28.09
2022-10-03T15:27:02.088Z,27.86
2022-10-03T15:29:31.572Z,28.06
2022-10-03T15:31:59.338Z,27.88
2022-10-03T15:34:32.446Z,28.06
2022-10-03T15:37:08.358Z,27.46
2022-10-03T15:39:37.647Z,27.32
2022-10-03T15:42:10.075Z,27.79
2022-10-03T15:44:39.736Z,27.59
2022-10-03T15:47:13.616Z,27.58
2022-10-03T15:49:48.900Z,27.41
2022-10-03T15:52:44.560Z,27.58
2022-10-03T15:55:20.648Z,27.62
2022-10-03T15:57:51.932Z,27.55
2022-10-03T16:00:38.022Z,27.28
2022-10-03T16:03:30.078Z,27.28
2022-10-03T16:06:09.214Z,27.19
2022-10-03T16:09:02.628Z,27.12
2022-10-03T16:11:54.892Z,26.97
2022-10-03T16:14:41.865Z,26.80
2022-10-03T16:17:33.343Z,26.96
2022-10-03T16:20:26.298Z,26.88
2022-10-03T16:22:57.808Z,26.49
2022-10-03T16:25:32.324Z,26.72
2022-10-03T16:28:14.365Z,26.67
2022-10-03T16:30:53.607Z,26.75
2022-10-03T16:33:28.741Z,26.67
2022-10-03T16:36:03.767Z,26.48
2022-10-03T16:38:36.252Z,26.34
2022-10-03T16:41:14.252Z,26.26
2022-10-03T16:43:42.021Z,26.13
2022-10-03T16:46:21.571Z,26.27
2022-10-03T16:49:07.137Z,26.29
2022-10-03T16:51:41.545Z,26.13
2022-10-03T16:54:13.726Z,26.07
2022-10-03T16:56:46.165Z,25.90
2022-10-03T16:59:17.917Z,25.94
2022-10-03T17:01:50.955Z,25.96
2022-10-03T17:04:49.371Z,25.84
2022-10-03T17:07:30.139Z,25.79
2022-10-03T17:09:59.931Z,25.44
2022-10-03T17:12:46.416Z,25.56
2022-10-03T17:15:20.269Z,24.93
2022-10-03T17:18:01.565Z,25.40
2022-10-03T17:20:48.569Z,25.14
2022-10-03T17:23:24.415Z,25.24
2022-10-03T17:26:11.481Z,25.15
2022-10-03T17:28:41.808Z,24.83
2022-10-03T17:31:23.094Z,24.54
2022-10-03T17:34:00.887Z,24.47
2022-10-03T17:36:55.832Z,24.62
2022-10-03T17:39:42.357Z,24.53
2022-10-03T17:42:39.963Z,24.41
2022-10-03T17:45:37.159Z,24.29
2022-10-03T17:48:13.516Z,24.23
2022-10-03T17:50:51.511Z,24.17
2022-10-03T17:53:30.941Z,23.78
2022-10-03T17:56:21.440Z,23.85
2022-10-03T17:58:52.629Z,23.72
2022-10-03T18:01:25.449Z,23.81
2022-10-03T18:03:58.616Z,23.77
2022-10-03T18:06:37.453Z,23.73
2022-10-03T18:09:17.226Z,23.67
2022-10-03T18:11:49.809Z,23.52
2022-10-03T18:14:32.085Z,23.60
2022-10-03T18:17:37.487Z,23.41
2022-10-03T18:20:29.033Z,23.24
2022-10-03T18:23:08.897Z,23.30
2022-10-03T18:28:58.741Z,23.18
2022-10-03T18:31:26.027Z,23.14
2022-10-03T18:34:01.022Z,23.10
2022-10-03T18:36:53.509Z,23.02
2022-10-03T18:39:34.202Z,22.82
2022-10-03T18:42:02.659Z,22.69
2022-10-03T18:44:32.737Z,22.82
2022-10-03T18:47:14.544Z,22.67
2022-10-03T18:49:48.398Z,22.86
2022-10-03T18:52:29.698Z,22.74
2022-10-03T18:55:20.506Z,22.68
2022-10-03T18:58:00.639Z,22.38
2022-10-03T19:00:34.305Z,22.56
2022-10-03T19:03:15.562Z,22.54
2022-10-03T19:05:58.477Z,22.61
2022-10-03T19:08:49.627Z,22.46
2022-10-03T19:11:32.162Z,22.37
2022-10-03T19:14:33.821Z,22.49
2022-10-03T19:17:21.084Z,22.43
2022-10-03T19:19:57.921Z,22.40
2022-10-03T19:23:06.508Z,22.29
2022-10-03T19:25:37.558Z,22.27
2022-10-03T19:28:22.241Z,22.21
2022-10-03T19:31:37.086Z,22.17
2022-10-03T19:34:33.625Z,22.13
2022-10-03T19:37:01.644Z,22.01
2022-10-03T19:39:32.632Z,21.97
2022-10-03T19:42:18.723Z,22.03
2022-10-03T19:44:45.653Z,22.00
2022-10-03T19:47:21.686Z,22.01
2022-10-03T19:50:19.305Z,21.93
2022-10-03T19:52:47.576Z,21.91
2022-10-03T19:55:19.165Z,21.87
2022-10-03T19:57:59.031Z,21.74
2022-10-03T20:00:26.189Z,21.58
2022-10-03T20:02:56.614Z,21.54
2022-10-03T20:05:41.053Z,21.35
2022-10-03T20:08:22.957Z,21.53
2022-10-03T20:11:06.326Z,21.45
2022-10-03T20:13:33.466Z,21.36
2022-10-03T20:16:00.605Z,21.25
2022-10-03T20:18:34.099Z,21.25
2022-10-03T20:21:04.310Z,21.40
2022-10-03T20:23:33.647Z,21.32
2022-10-03T20:26:05.363Z,21.26
2022-10-03T20:29:09.018Z,21.36
2022-10-03T20:31:39.103Z,21.28
2022-10-03T20:34:21.407Z,21.39
2022-10-03T20:36:55.204Z,21.39
2022-10-03T20:39:29.318Z,21.42
2022-10-03T20:42:19.016Z,21.28
2022-10-03T20:45:15.080Z,21.17
2022-10-03T20:47:51.653Z,21.36
2022-10-03T20:50:26.681Z,20.95
2022-10-03T20:52:58.329Z,20.82
2022-10-03T20:55:47.533Z,20.23
2022-10-03T20:58:41.283Z,21.13
2022-10-03T21:01:16.049Z,21.06
2022-10-03T21:04:07.489Z,21.08
2022-10-03T21:06:51.539Z,20.32
2022-10-03T21:09:34.380Z,21.02
2022-10-03T21:12:03.954Z,21.19
2022-10-03T21:14:33.730Z,20.98
2022-10-03T21:17:02.657Z,20.85
2022-10-03T21:19:32.323Z,21.17
2022-10-03T21:22:04.167Z,21.17
2022-10-03T21:29:06.002Z,21.12
2022-10-03T21:31:42.673Z,20.89
2022-10-03T21:31:48.090Z,21.14
2022-10-03T21:34:37.649Z,21.12
2022-10-03T21:37:11.263Z,21.15
2022-10-03T21:39:41.101Z,21.16
2022-10-03T21:42:16.619Z,21.04
2022-10-03T21:45:02.204Z,21.09
2022-10-03T21:47:50.448Z,21.13
2022-10-03T21:50:32.557Z,21.08
2022-10-03T21:53:19.559Z,21.14
2022-10-03T21:56:13.733Z,21.08
2022-10-03T21:59:02.600Z,21.18
2022-10-03T22:02:00.241Z,21.08
2022-10-03T22:04:37.095Z,21.13
2022-10-03T22:07:18.934Z,21.23
2022-10-03T22:09:51.485Z,21.14
2022-10-03T22:12:27.666Z,20.99
2022-10-03T22:15:00.480Z,21.27
2022-10-03T22:17:43.408Z,20.24
2022-10-03T22:20:21.392Z,20.97
2022-10-03T22:22:54.495Z,21.29
2022-10-03T22:25:48.058Z,21.26
2022-10-03T22:28:31.823Z,21.30
2022-10-03T22:31:17.372Z,21.31
2022-10-03T22:34:04.163Z,21.26
2022-10-03T22:36:36.641Z,21.09
2022-10-03T22:39:12.913Z,21.10
2022-10-03T22:41:42.264Z,21.27
2022-10-03T22:44:11.747Z,20.97
2022-10-03T22:46:43.135Z,21.16
2022-10-03T22:49:21.114Z,21.12
2022-10-03T22:51:50.537Z,21.15
2022-10-03T22:54:18.897Z,21.10
2022-10-03T22:56:48.755Z,20.49
2022-10-03T22:59:23.883Z,21.13
2022-10-03T23:01:54.660Z,21.08
2022-10-03T23:04:47.755Z,21.11
2022-10-03T23:07:26.876Z,21.23
2022-10-03T23:10:18.336Z,21.15
2022-10-03T23:12:52.880Z,21.00
2022-10-03T23:15:22.879Z,20.57
2022-10-03T23:17:58.389Z,21.02
2022-10-03T23:20:51.761Z,21.03
2022-10-03T23:23:25.785Z,21.18
2022-10-03T23:25:58.948Z,21.31
2022-10-03T23:29:03.352Z,21.09
2022-10-03T23:31:49.063Z,21.21
2022-10-03T23:34:34.959Z,21.18
2022-10-03T23:37:14.201Z,21.01
2022-10-03T23:39:56.145Z,21.19
2022-10-03T23:42:32.099Z,21.11
2022-10-03T23:45:06.598Z,21.05
2022-10-03T23:47:56.133Z,20.72
2022-10-03T23:50:53.552Z,20.79
2022-10-03T23:53:43.657Z,20.56
2022-10-03T23:56:22.726Z,20.43
2022-10-03T23:59:10.093Z,20.38
